Главная страница
METAR-TAF:

METAR-TAF

Аэропорты :

военная авиабаза

Линчёпинг, Швеция

широта: 58-24N, долгота: 015-31E, высота над уровнем моря: 93 м

Текущие метеонаблюдения

Эта сводка был подготовлена 27 минут назад, в 12:20 UTC
Ветер 18 Узел от южный
Температура 7°C
Влажность 87%
Давление 978 hPa
Видимость 10 км и более

METAR: ESCF 081220Z AUTO 19018KT 9999 BKN021/// BKN029/// OVC040/// 07/05 Q0978

Время: 13:47 (12:47 UTC)


TAF: отсутствует

Метеонаблюдения и прогнозы для более 4000 аэропортов (сводки METAR и TAF).

Имеющиеся станции представлены на карте желтыми и красными точками.

Чтобы увидеть название станции, наведите на нее мышь.

Затем щелкните, чтобы увидеть метеонаблюдения и метеопрогнозы.

Управление картой: чтобы увеличить масштаб, щелкните зеленые кнопки с черным крестиком; чтобы уменьшить масштаб, щелкните зеленую кнопку с тире; для просмотра соседних карт щелкайте зеленые стрелки.


METAR-TAF: